Creede, CO (81130)

6:33 AM MDT on March 24, 2017 (GMT -0600)
Deep Creek Road | | Change Station

Elev 8701 ft 37.81 °N, 106.93 °W | Updated 34 seconds ago

Overcast
Overcast
33.4 °F
Feels Like 29 °F
N
5.0
Wind Variable Wind from SSW
Gusts 20.0 mph

Today
High -- | Low -- °F
--% Chance of Precip.
Yesterday
High -- | Low -- °F
Precip. -- in
Pressure 29.86 in
Visibility 10.0 miles
Clouds Overcast 1100 ft
Windchill 29 °F
Dew Point 27 °F
Humidity 78%
Rainfall 0.00 in
Snow Depth Not available.
7:04 AM 7:23 PM
Waning Crescent, 15% visible
METAR KPSO 241215Z AUTO 00000KT 10SM OVC011 00/00 A2986 RMK AO2 T00010001
Pressure 29.86 in
Visibility 10.0 miles
Clouds Overcast 1100 ft
Windchill 29 °F
Dew Point 27 °F
Humidity 78%
Rainfall 0.00 in
Snow Depth Not available.
7:04 AM 7:23 PM
Waning Crescent, 15% visible
METAR KPSO 241215Z AUTO 00000KT 10SM OVC011 00/00 A2986 RMK AO2 T00010001

Get Severe Weather Alerts

Thanks for signing up!

Be on the lookout for a verification email in your inbox.

You'll start receiving the daily forecast at 8 AM.

×

10-Day Weather Forecast

Almanac

Astronomy

Mar. 24, 2017 Rise Set
Actual Time
Civil Twilight
Nautical Twilight
Astronomical Twilight
Moon
Length of Visible Light
Length of Day
Tomorrow will be .
, % of the Moon is Illuminated

Today's Extremes

State Highs State Lows

Community

WunderPhotos

Upload Photos

1,962,540 photos uploaded!

WunderBlog® & News

Nearby

Air Quality

  Air Quality AQ Index Pollutant
Not available.

Snow Depth

Station Depth Elevation

Earthquake Activity

City Distance Mag. Time & Date
Minimum magnitude displayed is 2.5.

Earthquake Activity

City Distance Mag. Time & Date
Minimum magnitude displayed is 2.5.

Coastal Water Temperatures

Place Temperature

Stations

Nearby Weather Stations

Station Location Temp. Windchill Dew Point Humidity Wind Precip. Elev Updated Type
                   

Watches & Warnings

There are currently no watches in effect.